createdAt,value
2018-06-24T00:00:08.539Z,58.00
2018-06-24T00:02:42.493Z,58.00
2018-06-24T00:07:48.867Z,57.70
2018-06-24T00:10:23.262Z,57.70
2018-06-24T00:12:57.262Z,57.80
2018-06-24T00:15:31.707Z,57.80
2018-06-24T00:18:05.774Z,57.90
2018-06-24T00:20:41.037Z,57.90
2018-06-24T00:23:15.078Z,58.00
2018-06-24T00:25:49.220Z,58.00
2018-06-24T00:28:24.520Z,57.80
2018-06-24T00:30:58.637Z,57.50
2018-06-24T00:33:32.672Z,57.40
2018-06-24T00:38:38.960Z,57.20
2018-06-24T00:41:14.964Z,56.90
2018-06-24T00:43:51.661Z,56.80
2018-06-24T00:46:25.594Z,56.60
2018-06-24T00:51:32.130Z,56.70
2018-06-24T00:54:06.285Z,56.70
2018-06-24T00:56:40.199Z,56.50
2018-06-24T00:59:22.179Z,56.40
2018-06-24T01:01:56.296Z,56.30
2018-06-24T01:04:30.132Z,56.30
2018-06-24T01:07:04.127Z,56.20
2018-06-24T01:09:40.018Z,56.00
2018-06-24T01:12:14.075Z,55.90
2018-06-24T01:14:47.904Z,55.90
2018-06-24T01:19:55.946Z,56.30
2018-06-24T01:22:30.111Z,55.90
2018-06-24T01:25:04.322Z,55.90
2018-06-24T01:27:37.997Z,55.70
2018-06-24T01:30:11.612Z,55.80
2018-06-24T01:32:45.901Z,55.60
2018-06-24T01:37:52.783Z,55.30
2018-06-24T01:43:00.020Z,55.90
2018-06-24T01:45:34.928Z,55.10
2018-06-24T01:48:08.742Z,55.10
2018-06-24T01:50:42.593Z,54.80
2018-06-24T01:53:16.474Z,54.80
2018-06-24T01:55:50.546Z,54.90
2018-06-24T01:58:24.600Z,54.90
2018-06-24T02:00:58.991Z,54.80
2018-06-24T02:06:05.263Z,53.90
2018-06-24T02:08:39.275Z,53.90
2018-06-24T02:13:46.318Z,53.20
2018-06-24T02:16:19.894Z,53.20
2018-06-24T02:18:54.245Z,53.10
2018-06-24T02:21:29.565Z,53.20
2018-06-24T02:24:03.364Z,53.10
2018-06-24T02:26:37.806Z,52.90
2018-06-24T02:29:12.125Z,53.00
2018-06-24T02:31:46.062Z,52.90
2018-06-24T02:34:19.900Z,53.00
2018-06-24T02:39:27.591Z,52.90
2018-06-24T02:42:01.527Z,52.70
2018-06-24T02:47:09.609Z,52.10
2018-06-24T02:49:43.628Z,52.00
2018-06-24T02:52:18.021Z,52.20
2018-06-24T02:54:51.847Z,52.20
2018-06-24T02:57:25.961Z,51.80
2018-06-24T03:00:00.169Z,51.70
2018-06-24T03:02:34.295Z,51.20
2018-06-24T03:05:08.524Z,50.90
2018-06-24T03:07:43.025Z,50.60
2018-06-24T03:10:16.927Z,50.70
2018-06-24T03:12:50.872Z,50.50
2018-06-24T03:15:24.669Z,50.50
2018-06-24T03:17:58.719Z,50.50
2018-06-24T03:20:33.033Z,50.20
2018-06-24T03:23:07.199Z,50.30
2018-06-24T03:25:41.008Z,50.30
2018-06-24T03:28:14.674Z,50.20
2018-06-24T03:30:48.867Z,50.20
2018-06-24T03:33:22.885Z,50.40
2018-06-24T03:35:56.919Z,50.10
2018-06-24T03:38:30.697Z,50.10
2018-06-24T03:41:04.741Z,50.10
2018-06-24T03:43:38.764Z,50.10
2018-06-24T03:46:12.531Z,49.90
2018-06-24T03:51:21.291Z,50.30
2018-06-24T03:53:56.403Z,49.70
2018-06-24T03:56:30.946Z,49.60
2018-06-24T03:59:04.960Z,49.70
2018-06-24T04:06:43.909Z,49.00
2018-06-24T04:09:18.385Z,48.90
2018-06-24T04:11:52.461Z,48.90
2018-06-24T04:14:26.672Z,48.70
2018-06-24T04:17:00.744Z,48.60
2018-06-24T04:19:34.606Z,48.70
2018-06-24T04:22:08.697Z,48.70
2018-06-24T04:24:42.670Z,48.60
2018-06-24T04:27:16.590Z,48.50
2018-06-24T04:29:50.555Z,48.00
2018-06-24T04:32:24.809Z,48.60
2018-06-24T04:34:58.878Z,48.60
2018-06-24T04:37:32.629Z,48.60
2018-06-24T04:40:06.565Z,48.80
2018-06-24T04:42:40.735Z,48.60
2018-06-24T04:45:14.570Z,48.50
2018-06-24T04:47:48.645Z,48.50
2018-06-24T04:50:24.968Z,48.30
2018-06-24T04:52:59.023Z,48.30
2018-06-24T04:55:33.073Z,48.30
2018-06-24T04:58:06.996Z,48.60
2018-06-24T05:00:40.786Z,48.60
2018-06-24T05:03:14.826Z,48.60
2018-06-24T05:51:20.434Z,48.50
2018-06-24T05:53:56.267Z,48.40
2018-06-24T05:56:30.460Z,50.50
2018-06-24T05:59:04.057Z,50.50
2018-06-24T06:01:38.510Z,50.20
2018-06-24T06:04:12.730Z,50.00
2018-06-24T06:06:46.616Z,50.00
2018-06-24T06:09:22.004Z,49.20
2018-06-24T06:11:56.226Z,48.90
2018-06-24T06:14:30.829Z,48.90
2018-06-24T06:17:05.078Z,48.60
2018-06-24T06:19:39.116Z,48.40
2018-06-24T06:24:52.401Z,48.30
2018-06-24T06:27:26.297Z,48.40
2018-06-24T06:35:04.903Z,48.30
2018-06-24T06:37:39.144Z,47.90
2018-06-24T06:40:13.198Z,47.80
2018-06-24T06:47:52.683Z,48.00
2018-06-24T06:50:26.924Z,47.80
2018-06-24T06:53:00.757Z,47.40
2018-06-24T06:55:36.315Z,47.30
2018-06-24T07:00:42.818Z,47.00
2018-06-24T07:03:16.876Z,46.70
2018-06-24T07:05:50.829Z,46.40
2018-06-24T07:08:24.935Z,46.20
2018-06-24T07:13:31.166Z,46.50
2018-06-24T07:16:05.241Z,46.30
2018-06-24T07:21:11.888Z,46.20
2018-06-24T07:23:46.037Z,45.70
2018-06-24T07:26:21.251Z,45.80
2018-06-24T07:28:55.466Z,45.70
2018-06-24T07:31:29.595Z,45.70
2018-06-24T07:34:03.523Z,45.80
2018-06-24T07:36:37.867Z,45.90
2018-06-24T07:39:13.612Z,45.90
2018-06-24T07:41:48.415Z,45.20
2018-06-24T07:44:23.159Z,45.20
2018-06-24T07:46:57.466Z,45.10
2018-06-24T07:49:31.605Z,45.20
2018-06-24T07:52:05.908Z,45.00
2018-06-24T07:54:39.945Z,45.00
2018-06-24T07:57:16.423Z,44.50
2018-06-24T07:59:50.508Z,44.30
2018-06-24T08:02:24.365Z,44.60
2018-06-24T08:04:58.505Z,44.50
2018-06-24T08:07:32.370Z,44.40
2018-06-24T08:10:06.569Z,44.20
2018-06-24T08:12:40.767Z,43.90
2018-06-24T08:15:14.973Z,43.60
2018-06-24T08:20:21.474Z,43.40
2018-06-24T08:22:55.473Z,43.40
2018-06-24T08:25:29.456Z,43.30
2018-06-24T08:28:03.670Z,43.60
2018-06-24T08:30:37.337Z,43.80
2018-06-24T08:33:11.626Z,44.00
2018-06-24T08:38:17.629Z,44.30
2018-06-24T08:40:51.855Z,43.80
2018-06-24T08:43:25.783Z,43.90
2018-06-24T08:45:59.872Z,44.20
2018-06-24T08:48:34.357Z,43.90
2018-06-24T08:51:08.581Z,43.90
2018-06-24T08:53:42.318Z,43.60
2018-06-24T08:56:16.202Z,44.30
2018-06-24T08:58:52.054Z,44.10
2018-06-24T09:03:58.722Z,43.90
2018-06-24T09:06:32.209Z,43.60
2018-06-24T09:09:07.312Z,43.40
2018-06-24T09:11:41.565Z,43.90
2018-06-24T09:14:15.741Z,43.20
2018-06-24T09:16:49.677Z,43.30
2018-06-24T09:19:23.882Z,43.10
2018-06-24T09:21:58.288Z,42.90
2018-06-24T09:24:32.447Z,42.80
2018-06-24T09:27:06.391Z,42.90
2018-06-24T09:29:40.700Z,42.80
2018-06-24T09:32:14.354Z,43.00
2018-06-24T09:34:48.721Z,43.20
2018-06-24T09:37:22.575Z,43.50
2018-06-24T09:39:56.733Z,43.90
2018-06-24T09:42:30.391Z,44.30
2018-06-24T09:45:04.706Z,44.70
2018-06-24T09:47:39.054Z,44.80
2018-06-24T09:50:13.106Z,45.00
2018-06-24T09:52:48.933Z,45.00
2018-06-24T09:55:23.229Z,45.40
2018-06-24T09:57:57.660Z,45.80
2018-06-24T10:03:05.651Z,45.80
2018-06-24T10:05:39.695Z,45.50
2018-06-24T10:08:13.826Z,45.40
2018-06-24T10:10:47.822Z,45.50
2018-06-24T10:13:21.516Z,45.40
2018-06-24T10:15:55.700Z,45.50
2018-06-24T10:18:30.028Z,45.60
2018-06-24T10:21:04.459Z,45.50
2018-06-24T10:23:38.444Z,45.60
2018-06-24T10:28:45.680Z,45.60
2018-06-24T10:31:19.424Z,45.80
2018-06-24T10:33:53.578Z,46.10
2018-06-24T10:36:27.458Z,46.20
2018-06-24T10:39:01.447Z,46.70
2018-06-24T10:41:35.365Z,46.60
2018-06-24T10:46:42.057Z,46.90
2018-06-24T10:49:15.852Z,47.70
2018-06-24T10:51:50.619Z,47.10
2018-06-24T10:54:25.226Z,47.30
2018-06-24T10:56:59.387Z,47.50
2018-06-24T10:59:34.390Z,47.60
2018-06-24T11:02:09.374Z,47.90
2018-06-24T11:04:43.218Z,47.80
2018-06-24T11:07:17.023Z,48.00
2018-06-24T11:09:51.918Z,48.30
2018-06-24T11:12:25.987Z,48.40
2018-06-24T11:15:00.181Z,48.40
2018-06-24T11:17:34.043Z,48.30
2018-06-24T11:20:08.026Z,48.30
2018-06-24T11:22:42.298Z,48.30
2018-06-24T11:25:16.365Z,48.30
2018-06-24T11:27:50.137Z,48.40
2018-06-24T11:30:23.936Z,48.40
2018-06-24T11:32:58.638Z,48.30
2018-06-24T11:35:32.570Z,48.30
2018-06-24T11:38:06.945Z,48.30
2018-06-24T11:43:13.313Z,48.20
2018-06-24T11:45:47.199Z,48.30
2018-06-24T11:48:21.383Z,48.40
2018-06-24T11:50:55.696Z,48.40
2018-06-24T11:53:29.648Z,48.60
2018-06-24T11:56:03.772Z,48.70
2018-06-24T11:58:38.288Z,48.80
2018-06-24T12:01:12.240Z,48.80
2018-06-24T12:03:48.456Z,49.00
2018-06-24T12:06:22.382Z,49.10
2018-06-24T12:08:56.548Z,49.20
2018-06-24T12:11:31.169Z,49.30
2018-06-24T12:14:05.273Z,49.50
2018-06-24T12:16:39.465Z,49.60
2018-06-24T12:19:43.803Z,49.70
2018-06-24T12:22:18.008Z,49.80
2018-06-24T12:24:51.776Z,50.00
2018-06-24T12:27:26.094Z,50.20
2018-06-24T12:30:00.164Z,50.30
2018-06-24T12:32:34.162Z,50.50
2018-06-24T12:35:08.130Z,50.60
2018-06-24T12:37:43.275Z,50.50
2018-06-24T12:40:17.739Z,50.80
2018-06-24T12:42:52.851Z,50.80
2018-06-24T12:45:26.644Z,51.00
2018-06-24T12:48:00.680Z,51.60
2018-06-24T12:50:35.027Z,51.20
2018-06-24T12:53:09.024Z,51.30
2018-06-24T12:55:43.711Z,51.50
2018-06-24T13:00:50.468Z,51.50
2018-06-24T13:03:24.268Z,51.60
2018-06-24T13:06:00.356Z,51.80
2018-06-24T13:08:34.535Z,51.80
2018-06-24T13:11:08.489Z,51.90
2018-06-24T13:13:42.809Z,51.80
2018-06-24T13:16:17.783Z,52.00
2018-06-24T13:18:52.554Z,52.00
2018-06-24T13:21:26.426Z,52.10
2018-06-24T13:24:00.391Z,52.20
2018-06-24T13:26:34.486Z,52.20
2018-06-24T13:29:10.397Z,52.30
2018-06-24T13:31:44.503Z,52.20
2018-06-24T13:34:19.069Z,52.40
2018-06-24T13:36:53.532Z,52.50
2018-06-24T14:04:40.475Z,52.60
2018-06-24T14:07:16.448Z,54.00
2018-06-24T14:09:50.644Z,54.50
2018-06-24T14:12:25.521Z,54.20
2018-06-24T14:14:59.770Z,53.70
2018-06-24T14:17:34.159Z,53.30
2018-06-24T14:20:07.993Z,52.70
2018-06-24T14:27:46.988Z,51.60
2018-06-24T14:30:21.038Z,51.60
2018-06-24T14:32:55.794Z,51.50
2018-06-24T14:35:29.820Z,51.60
2018-06-24T14:40:36.042Z,51.90
2018-06-24T14:43:10.489Z,52.00
2018-06-24T14:45:44.602Z,52.00
2018-06-24T14:48:18.616Z,51.80
2018-06-24T14:53:25.333Z,51.70
2018-06-24T14:58:31.600Z,51.60
2018-06-24T15:01:05.845Z,51.60
2018-06-24T15:03:40.464Z,51.50
2018-06-24T15:06:14.826Z,51.50
2018-06-24T15:08:49.993Z,51.40
2018-06-24T15:11:24.547Z,51.50
2018-06-24T15:13:59.085Z,51.60
2018-06-24T15:16:33.198Z,51.80
2018-06-24T15:19:07.523Z,51.70
2018-06-24T15:21:42.222Z,51.90
2018-06-24T15:24:16.186Z,51.90
2018-06-24T15:26:50.445Z,51.90
2018-06-24T15:29:24.704Z,51.70
2018-06-24T15:31:58.876Z,51.30
2018-06-24T15:34:34.208Z,51.30
2018-06-24T15:37:08.059Z,51.20
2018-06-24T15:39:42.762Z,51.20
2018-06-24T15:42:17.266Z,51.10
2018-06-24T15:44:52.503Z,51.90
2018-06-24T15:47:26.340Z,51.30
2018-06-24T15:50:00.806Z,51.30
2018-06-24T15:52:35.015Z,51.30
2018-06-24T15:55:09.328Z,51.10
2018-06-24T15:57:43.065Z,51.00
2018-06-24T16:00:17.006Z,51.00
2018-06-24T16:02:51.157Z,51.10
2018-06-24T16:28:47.357Z,51.10
2018-06-24T16:31:21.452Z,51.20
2018-06-24T16:33:56.002Z,53.40
2018-06-24T16:36:30.284Z,53.60
2018-06-24T16:39:04.325Z,53.70
2018-06-24T16:41:39.497Z,53.70
2018-06-24T16:44:13.995Z,53.70
2018-06-24T16:46:47.993Z,53.70
2018-06-24T16:49:23.133Z,53.70
2018-06-24T16:51:57.238Z,53.80
2018-06-24T16:54:31.733Z,53.80
2018-06-24T16:57:05.698Z,53.80
2018-06-24T16:59:40.815Z,53.70
2018-06-24T17:02:15.282Z,53.60
2018-06-24T17:09:56.461Z,53.10
2018-06-24T17:12:32.692Z,52.90
2018-06-24T17:15:07.507Z,52.70
2018-06-24T17:17:43.011Z,52.60
2018-06-24T17:20:17.799Z,52.40
2018-06-24T17:22:56.346Z,52.50
2018-06-24T17:25:30.722Z,52.50
2018-06-24T17:28:05.131Z,52.60
2018-06-24T17:30:40.595Z,53.20
2018-06-24T17:33:14.781Z,52.30
2018-06-24T17:35:49.277Z,52.10
2018-06-24T17:38:23.588Z,51.90
2018-06-24T17:40:57.742Z,51.80
2018-06-24T17:43:31.518Z,51.80
2018-06-24T17:46:05.337Z,51.80
2018-06-24T17:48:39.509Z,51.70
2018-06-24T17:51:13.647Z,51.60
2018-06-24T17:53:49.229Z,51.70
2018-06-24T17:56:23.484Z,51.80
2018-06-24T17:58:57.203Z,52.60
2018-06-24T18:04:04.088Z,52.00
2018-06-24T18:06:38.415Z,52.10
2018-06-24T18:09:14.288Z,52.30
2018-06-24T18:11:48.537Z,52.50
2018-06-24T18:14:22.370Z,52.60
2018-06-24T18:16:56.256Z,52.60
2018-06-24T18:19:30.257Z,52.70
2018-06-24T18:22:04.277Z,52.80
2018-06-24T18:24:39.545Z,52.90
2018-06-24T18:27:13.535Z,53.20
2018-06-24T18:29:47.540Z,53.10
2018-06-24T18:32:23.054Z,53.20
2018-06-24T18:34:57.015Z,53.40
2018-06-24T18:37:31.457Z,53.30
2018-06-24T18:40:05.898Z,53.30
2018-06-24T18:45:13.647Z,53.10
2018-06-24T18:47:48.591Z,53.10
2018-06-24T18:50:22.725Z,53.00
2018-06-24T18:52:56.935Z,53.10
2018-06-24T18:55:31.410Z,53.30
2018-06-24T19:00:37.329Z,53.40
2018-06-24T19:03:11.580Z,53.50
2018-06-24T19:05:45.623Z,53.60
2018-06-24T19:08:19.719Z,53.70
2018-06-24T19:10:53.822Z,53.70
2018-06-24T19:13:27.720Z,54.50
2018-06-24T19:16:03.799Z,53.70
2018-06-24T19:18:38.110Z,54.40
2018-06-24T19:21:11.875Z,53.70
2018-06-24T19:23:46.237Z,53.70
2018-06-24T19:26:20.271Z,53.80
2018-06-24T19:31:26.732Z,53.90
2018-06-24T19:34:01.677Z,53.90
2018-06-24T19:39:10.193Z,53.90
2018-06-24T19:41:44.791Z,53.90
2018-06-24T19:44:18.619Z,54.20
2018-06-24T19:46:52.842Z,53.90
2018-06-24T19:49:26.773Z,53.90
2018-06-24T19:52:00.984Z,53.90
2018-06-24T19:54:34.994Z,54.00
2018-06-24T19:57:09.411Z,54.00
2018-06-24T19:59:43.483Z,54.00
2018-06-24T20:02:17.720Z,53.90
2018-06-24T20:04:51.531Z,54.00
2018-06-24T20:07:25.425Z,54.00
2018-06-24T20:09:59.527Z,54.00
2018-06-24T20:12:33.234Z,53.90
2018-06-24T20:15:07.175Z,53.80
2018-06-24T20:17:41.038Z,53.80
2018-06-24T20:20:15.283Z,54.00
2018-06-24T20:22:50.206Z,54.00
2018-06-24T20:25:24.121Z,54.00
2018-06-24T20:27:58.356Z,54.00
2018-06-24T20:30:32.849Z,54.00
2018-06-24T20:33:06.905Z,54.10
2018-06-24T20:35:42.784Z,54.10
2018-06-24T20:38:16.798Z,53.80
2018-06-24T20:40:50.857Z,54.10
2018-06-24T20:43:25.075Z,54.10
2018-06-24T20:45:59.028Z,54.10
2018-06-24T20:48:33.246Z,54.20
2018-06-24T20:51:07.299Z,54.20
2018-06-24T20:53:41.674Z,54.20
2018-06-24T20:56:15.498Z,54.20
2018-06-24T20:58:50.019Z,54.30
2018-06-24T21:01:23.855Z,54.30
2018-06-24T21:03:57.691Z,54.20
2018-06-24T21:09:04.137Z,54.40
2018-06-24T21:11:39.049Z,54.40
2018-06-24T21:14:13.120Z,54.50
2018-06-24T21:16:48.045Z,54.60
2018-06-24T21:19:21.850Z,54.70
2018-06-24T21:21:55.746Z,54.80
2018-06-24T21:24:36.798Z,54.90
2018-06-24T21:27:12.360Z,55.00
2018-06-24T21:29:46.832Z,55.10
2018-06-24T21:32:20.707Z,55.10
2018-06-24T21:34:55.548Z,55.20
2018-06-24T21:37:31.667Z,55.10
2018-06-24T21:40:05.812Z,55.10
2018-06-24T21:42:39.976Z,55.00
2018-06-24T21:45:13.940Z,55.00
2018-06-24T22:26:48.587Z,55.20
2018-06-24T22:29:23.149Z,55.30
2018-06-24T22:31:57.622Z,58.10
2018-06-24T22:34:31.700Z,58.60
2018-06-24T22:37:05.900Z,58.70
2018-06-24T22:39:40.570Z,58.70
2018-06-24T22:42:14.378Z,58.60
2018-06-24T22:44:48.852Z,58.40
2018-06-24T22:47:22.473Z,58.20
2018-06-24T22:49:56.296Z,58.10
2018-06-24T22:52:30.405Z,58.10
2018-06-24T22:55:04.202Z,57.90
2018-06-24T22:57:38.065Z,57.80
2018-06-24T23:00:16.330Z,57.60
2018-06-24T23:05:28.817Z,57.40
2018-06-24T23:08:02.933Z,57.30
2018-06-24T23:10:37.175Z,57.20
2018-06-24T23:13:11.059Z,57.10
2018-06-24T23:15:45.309Z,57.10
2018-06-24T23:18:19.152Z,57.00
2018-06-24T23:20:53.134Z,57.00
2018-06-24T23:23:26.866Z,57.00
2018-06-24T23:26:00.893Z,56.90
2018-06-24T23:28:35.019Z,56.80
2018-06-24T23:31:09.348Z,56.90
2018-06-24T23:33:44.004Z,56.80
2018-06-24T23:38:50.412Z,56.60
2018-06-24T23:41:25.765Z,56.60
2018-06-24T23:43:59.786Z,56.80
2018-06-24T23:46:33.876Z,56.80
2018-06-24T23:49:07.878Z,56.80
